Time;durP1;ratioP1;P1;durP2;ratioP2;P2;SDS_P1;SDS_P2;PMS_P1;PMS_P2;Temp;Humidity;BMP_temperature;BMP_pressure;BME280_temperature;BME280_humidity;BME280_pressure;Samples;Min_cycle;Max_cycle;Signal;HPM_P1;HPM_P2
2022/01/02 00:00:09;;;;;;;38.78;26.15;;;8.20;99.90;;;;;;5073904;28;20028;-75
2022/01/02 00:02:36;;;;;;;41.28;25.38;;;8.20;99.90;;;;;;5073784;28;20068;-75
2022/01/02 00:05:05;;;;;;;34.03;21.92;;;8.10;99.90;;;;;;5073891;28;20081;-75
2022/01/02 00:07:35;;;;;;;33.03;20.83;;;8.10;99.90;;;;;;5073467;28;20082;-76
2022/01/02 00:10:04;;;;;;;36.45;23.45;;;8.10;99.90;;;;;;5073221;28;20021;-76
2022/01/02 00:12:33;;;;;;;33.83;21.42;;;8.10;99.90;;;;;;5074095;28;20134;-77
2022/01/02 00:15:05;;;;;;;41.60;23.20;;;8.10;99.90;;;;;;5073840;28;20632;-76
2022/01/02 00:17:32;;;;;;;38.80;24.35;;;8.00;99.90;;;;;;5073708;28;20485;-77
2022/01/02 00:20:08;;;;;;;35.80;23.33;;;8.00;99.90;;;;;;5073895;28;20024;-77
2022/01/02 00:22:36;;;;;;;37.38;24.63;;;8.00;99.90;;;;;;5073371;28;20544;-76
2022/01/02 00:25:11;;;;;;;36.78;23.60;;;8.00;99.90;;;;;;5073016;28;20475;-76
2022/01/02 00:27:39;;;;;;;37.75;23.25;;;8.00;99.90;;;;;;5074144;28;20395;-76
2022/01/02 00:30:06;;;;;;;35.45;22.30;;;8.00;99.90;;;;;;5073773;28;20020;-77
2022/01/02 00:32:35;;;;;;;32.65;21.88;;;8.00;99.90;;;;;;5072063;28;20487;-77
2022/01/02 00:35:01;;;;;;;32.85;21.45;;;7.90;99.90;;;;;;5073684;28;20601;-76
2022/01/02 00:37:27;;;;;;;31.05;19.58;;;7.90;99.90;;;;;;5072360;28;20034;-77
2022/01/02 00:39:53;;;;;;;39.00;21.55;;;7.90;99.90;;;;;;5072023;28;20379;-76
2022/01/02 00:42:30;;;;;;;43.50;22.95;;;7.90;99.90;;;;;;5073492;28;20483;-75
2022/01/02 00:44:58;;;;;;;39.08;23.42;;;7.80;99.90;;;;;;5073613;28;20416;-76
2022/01/02 00:47:36;;;;;;;36.67;23.67;;;7.80;99.90;;;;;;5073524;28;20467;-76
2022/01/02 00:50:14;;;;;;;37.85;22.73;;;7.80;99.90;;;;;;5073095;28;20453;-76
2022/01/02 00:52:43;;;;;;;35.08;22.52;;;7.70;99.90;;;;;;5073166;28;20055;-75
2022/01/02 00:55:18;;;;;;;35.20;21.00;;;7.70;99.90;;;;;;5072312;28;20090;-76
2022/01/02 00:57:55;;;;;;;39.25;22.27;;;7.60;99.90;;;;;;5071166;28;20086;-76
2022/01/02 01:00:22;;;;;;;35.95;22.40;;;7.70;99.90;;;;;;5071706;28;20062;-76
2022/01/02 01:02:53;;;;;;;36.15;22.15;;;7.60;99.90;;;;;;5072521;28;20029;-75
2022/01/02 01:05:20;;;;;;;34.22;21.73;;;7.60;99.90;;;;;;5071885;28;20076;-75
2022/01/02 01:07:58;;;;;;;33.83;21.75;;;7.60;99.90;;;;;;5072745;28;20107;-75
2022/01/02 01:10:25;;;;;;;34.75;22.27;;;7.60;99.90;;;;;;5053520;28;20123;-75
2022/01/02 01:12:55;;;;;;;33.28;22.45;;;7.60;99.90;;;;;;5071411;28;20030;-76
2022/01/02 01:15:23;;;;;;;33.47;22.90;;;7.60;99.90;;;;;;5071507;28;20024;-75
2022/01/02 01:17:52;;;;;;;35.20;22.52;;;7.60;99.90;;;;;;5072659;28;20128;-75
2022/01/02 01:20:19;;;;;;;32.83;20.92;;;7.60;99.90;;;;;;5072800;28;20524;-74
2022/01/02 01:22:45;;;;;;;33.58;21.45;;;7.50;99.90;;;;;;5072313;28;20369;-75
2022/01/02 01:25:16;;;;;;;35.55;20.73;;;7.50;99.90;;;;;;5072259;28;20120;-74
2022/01/02 01:27:47;;;;;;;33.70;20.50;;;7.50;99.90;;;;;;5070667;28;20360;-74
2022/01/02 01:30:15;;;;;;;39.15;24.33;;;7.50;99.90;;;;;;5070660;28;20122;-75
2022/01/02 01:32:41;;;;;;;36.42;23.00;;;7.50;99.90;;;;;;5071127;28;20025;-75
2022/01/02 01:35:09;;;;;;;36.42;23.73;;;7.50;99.90;;;;;;5071970;28;20070;-75
2022/01/02 01:37:36;;;;;;;35.78;23.17;;;7.50;99.90;;;;;;5071090;28;20086;-74
2022/01/02 01:40:04;;;;;;;33.00;22.80;;;7.50;99.90;;;;;;5072401;28;20028;-76
2022/01/02 01:42:37;;;;;;;29.45;20.42;;;7.50;99.90;;;;;;5070847;28;20041;-76
2022/01/02 01:47:48;;;;;;;31.77;18.58;;;7.50;99.90;;;;;;5041573;28;20037;-76
2022/01/02 01:50:15;;;;;;;28.92;18.90;;;7.50;99.90;;;;;;5052332;28;20521;-75
2022/01/02 01:52:41;;;;;;;30.08;18.92;;;7.50;99.90;;;;;;5051920;28;20507;-74
2022/01/02 01:55:08;;;;;;;30.73;19.05;;;7.50;99.90;;;;;;5050946;28;20037;-74
2022/01/02 01:57:34;;;;;;;32.40;19.38;;;7.50;99.90;;;;;;5050978;28;20029;-75
2022/01/02 02:00:05;;;;;;;31.70;19.52;;;7.60;99.90;;;;;;5050551;28;20410;-74
2022/01/02 02:02:33;;;;;;;32.08;19.42;;;7.50;99.90;;;;;;5052191;28;20037;-74
2022/01/02 02:04:59;;;;;;;31.80;19.27;;;7.50;99.90;;;;;;5050800;28;20033;-74
2022/01/02 02:07:30;;;;;;;28.10;18.73;;;7.50;99.90;;;;;;5050897;28;20029;-73
2022/01/02 02:10:11;;;;;;;33.50;17.75;;;7.50;99.90;;;;;;5050874;28;20029;-76
2022/01/02 02:12:41;;;;;;;27.20;17.27;;;7.50;99.90;;;;;;5050919;28;20035;-75
2022/01/02 02:15:09;;;;;;;26.10;17.67;;;7.60;99.90;;;;;;5050746;28;20037;-75
2022/01/02 02:17:35;;;;;;;31.10;18.15;;;7.70;99.90;;;;;;5050609;28;20049;-74
2022/01/02 02:20:17;;;;;;;28.92;17.08;;;7.70;99.90;;;;;;5049824;28;20079;-75
2022/01/02 02:22:48;;;;;;;33.15;17.63;;;7.70;99.90;;;;;;5050618;28;20037;-75
2022/01/02 02:25:17;;;;;;;27.27;16.60;;;7.80;99.90;;;;;;5051951;28;20032;-75
2022/01/02 02:27:55;;;;;;;27.02;16.58;;;7.80;99.90;;;;;;5050702;28;20451;-75
2022/01/02 02:30:23;;;;;;;29.17;17.08;;;7.70;99.90;;;;;;5050629;28;20029;-75
2022/01/02 02:32:55;;;;;;;25.10;16.60;;;7.70;99.90;;;;;;5050606;28;20032;-75
2022/01/02 02:35:23;;;;;;;26.63;18.40;;;7.70;99.90;;;;;;5033812;28;20064;-75
2022/01/02 02:37:49;;;;;;;27.80;17.95;;;7.70;99.90;;;;;;5050539;28;20502;-73
2022/01/02 02:40:19;;;;;;;27.40;16.42;;;7.70;99.90;;;;;;5050573;28;20029;-74
2022/01/02 02:51:01;;;;;;;23.77;14.70;;;7.70;99.90;;;;;;5053984;28;20041;-76
2022/01/02 02:53:27;;;;;;;24.77;15.57;;;7.70;99.90;;;;;;5055564;28;20063;-75
2022/01/02 02:55:57;;;;;;;24.88;14.70;;;7.70;99.90;;;;;;5054226;28;20116;-76
2022/01/02 03:00:56;;;;;;;23.65;14.65;;;7.70;99.90;;;;;;5054296;28;20029;-77
2022/01/02 03:03:22;;;;;;;25.30;14.88;;;7.70;99.90;;;;;;5054219;28;20044;-76
2022/01/02 03:05:48;;;;;;;27.02;16.92;;;7.70;99.90;;;;;;5054012;28;20029;-73
2022/01/02 03:08:14;;;;;;;24.88;13.80;;;7.70;99.90;;;;;;5055487;28;20025;-74
2022/01/02 03:10:40;;;;;;;24.00;14.52;;;7.60;99.90;;;;;;5037476;28;20146;-75
2022/01/02 03:13:06;;;;;;;24.58;15.25;;;7.60;99.90;;;;;;5055693;28;20476;-74
2022/01/02 03:15:32;;;;;;;25.98;15.90;;;7.60;99.90;;;;;;5055084;28;20025;-74
2022/01/02 03:17:58;;;;;;;25.45;16.60;;;7.60;99.90;;;;;;5037253;28;20104;-75
2022/01/02 03:20:24;;;;;;;21.85;14.27;;;7.50;99.90;;;;;;5054860;28;20100;-76
2022/01/02 03:22:49;;;;;;;28.08;15.30;;;7.50;99.90;;;;;;5053666;28;20045;-76
2022/01/02 03:25:16;;;;;;;27.35;16.15;;;7.50;99.90;;;;;;5055002;28;20017;-76
2022/01/02 03:27:43;;;;;;;25.00;14.70;;;7.50;99.90;;;;;;5053520;28;20032;-75
2022/01/02 03:30:11;;;;;;;23.10;14.90;;;7.50;99.90;;;;;;5053738;28;20036;-76
2022/01/02 03:32:37;;;;;;;23.73;14.10;;;7.40;99.90;;;;;;5055200;28;20025;-75
2022/01/02 03:35:04;;;;;;;23.20;14.27;;;7.40;99.90;;;;;;5053507;28;20477;-77
2022/01/02 03:37:33;;;;;;;24.10;15.32;;;7.50;99.90;;;;;;5054463;28;20048;-77
2022/01/02 03:40:01;;;;;;;22.30;14.82;;;7.40;99.90;;;;;;5053010;28;20112;-77
2022/01/02 03:42:26;;;;;;;21.42;12.50;;;7.40;99.90;;;;;;5053275;28;20040;-76
2022/01/02 03:44:52;;;;;;;21.83;12.98;;;7.40;99.90;;;;;;5052905;28;20551;-76
2022/01/02 03:47:18;;;;;;;21.13;11.55;;;7.30;99.90;;;;;;5053402;28;20399;-76
2022/01/02 03:49:45;;;;;;;21.13;14.02;;;7.30;99.90;;;;;;5052775;28;20017;-75
2022/01/02 03:52:12;;;;;;;23.50;12.73;;;7.30;99.90;;;;;;5053028;28;20128;-75
2022/01/02 03:54:39;;;;;;;24.80;14.00;;;7.30;99.90;;;;;;5053173;28;20138;-75
2022/01/02 03:57:05;;;;;;;21.38;13.82;;;7.30;99.90;;;;;;5053240;28;20021;-74
2022/01/02 03:59:31;;;;;;;22.35;13.75;;;7.30;99.90;;;;;;5054114;28;20037;-75
2022/01/02 04:01:57;;;;;;;21.83;14.60;;;7.20;99.90;;;;;;5053754;28;20116;-75
2022/01/02 04:04:23;;;;;;;23.25;13.98;;;7.20;99.90;;;;;;5054064;28;20021;-74
2022/01/02 04:06:48;;;;;;;22.05;12.90;;;7.20;99.90;;;;;;5054016;28;20028;-76
2022/01/02 04:09:14;;;;;;;22.77;13.50;;;7.20;99.90;;;;;;5052777;28;20017;-77
2022/01/02 04:11:40;;;;;;;22.25;12.88;;;7.10;99.90;;;;;;5052482;28;20029;-77
2022/01/02 04:14:07;;;;;;;22.02;13.23;;;7.10;99.90;;;;;;5052870;28;20376;-74
2022/01/02 04:16:32;;;;;;;21.30;13.57;;;7.20;99.90;;;;;;5052692;28;20167;-76
2022/01/02 04:18:59;;;;;;;18.52;11.63;;;7.10;99.90;;;;;;5052802;28;20040;-77
2022/01/02 04:21:25;;;;;;;19.45;12.77;;;7.20;99.90;;;;;;5053975;28;20040;-77
2022/01/02 04:23:50;;;;;;;22.15;13.05;;;7.10;99.90;;;;;;5052451;28;20036;-76
2022/01/02 04:26:16;;;;;;;23.17;13.57;;;7.10;99.90;;;;;;5035986;28;20040;-77
2022/01/02 04:28:42;;;;;;;25.17;14.60;;;7.10;99.90;;;;;;5053982;28;20033;-77
2022/01/02 04:31:10;;;;;;;28.35;15.43;;;7.00;99.90;;;;;;5053908;28;20108;-76
2022/01/02 04:33:36;;;;;;;23.77;14.35;;;7.00;99.90;;;;;;5052187;28;20067;-76
2022/01/02 04:36:03;;;;;;;20.65;12.55;;;6.90;99.90;;;;;;5052381;28;20025;-76
2022/01/02 04:38:30;;;;;;;20.42;13.07;;;7.00;99.90;;;;;;5052335;28;20021;-75
2022/01/02 04:40:58;;;;;;;21.48;13.10;;;7.00;99.90;;;;;;5052359;28;20032;-74
2022/01/02 04:43:24;;;;;;;29.52;18.63;;;6.90;99.90;;;;;;5052222;28;20127;-76
2022/01/02 04:45:50;;;;;;;35.63;20.60;;;7.00;99.90;;;;;;5052293;28;20035;-76
2022/01/02 04:48:16;;;;;;;24.83;14.65;;;7.00;99.90;;;;;;5052158;28;20110;-75
2022/01/02 04:50:42;;;;;;;23.85;14.70;;;6.90;99.90;;;;;;5051866;28;20423;-76
2022/01/02 04:53:09;;;;;;;39.00;25.75;;;6.90;99.90;;;;;;5051699;28;20049;-77
2022/01/02 04:55:35;;;;;;;27.63;17.75;;;6.90;99.90;;;;;;5051941;28;20546;-76
2022/01/02 04:58:01;;;;;;;30.70;17.05;;;6.90;99.90;;;;;;5051845;28;20025;-76
2022/01/02 05:00:28;;;;;;;31.85;16.42;;;6.90;99.90;;;;;;5053209;28;20033;-74
2022/01/02 05:02:54;;;;;;;30.30;18.33;;;6.80;99.90;;;;;;5051370;28;20056;-74
2022/01/02 05:05:21;;;;;;;26.85;17.27;;;6.80;99.90;;;;;;5051198;28;20132;-75
2022/01/02 05:07:47;;;;;;;33.40;18.88;;;6.80;99.90;;;;;;5050627;28;20116;-76
2022/01/02 05:10:13;;;;;;;28.30;18.92;;;6.80;99.90;;;;;;5052337;28;20035;-76
2022/01/02 05:12:39;;;;;;;23.83;15.07;;;6.70;99.90;;;;;;5050886;28;20032;-75
2022/01/02 05:15:06;;;;;;;27.38;17.10;;;6.70;99.90;;;;;;5051493;28;20033;-75
2022/01/02 05:17:32;;;;;;;26.85;17.50;;;6.60;99.90;;;;;;5051066;28;20497;-76
2022/01/02 05:19:58;;;;;;;25.65;16.63;;;6.60;99.90;;;;;;5051303;28;20179;-76
2022/01/02 05:22:23;;;;;;;26.45;18.05;;;6.50;99.90;;;;;;5050320;28;20075;-76
2022/01/02 05:24:49;;;;;;;30.63;18.95;;;6.50;99.90;;;;;;5052714;28;20124;-75
2022/01/02 05:27:15;;;;;;;29.20;19.85;;;6.50;99.90;;;;;;5051164;28;20451;-76
2022/01/02 05:29:41;;;;;;;36.40;24.00;;;6.50;99.90;;;;;;5051419;28;20090;-76
2022/01/02 05:32:07;;;;;;;33.67;21.15;;;6.40;99.90;;;;;;5051345;28;20479;-76
2022/01/02 05:34:33;;;;;;;32.80;21.75;;;6.40;99.90;;;;;;5050573;28;20119;-76
2022/01/02 05:36:59;;;;;;;36.22;23.55;;;6.40;99.90;;;;;;5051145;28;20029;-77
2022/01/02 05:39:25;;;;;;;39.38;25.85;;;6.40;99.90;;;;;;5051044;28;20508;-77
2022/01/02 05:41:53;;;;;;;29.23;19.83;;;6.30;99.90;;;;;;5050571;28;20083;-76
2022/01/02 05:44:22;;;;;;;61.63;38.83;;;6.20;99.90;;;;;;5051105;28;20067;-76
2022/01/02 05:46:49;;;;;;;68.72;41.65;;;6.20;99.90;;;;;;5051234;28;20037;-77
2022/01/02 05:49:15;;;;;;;82.22;51.22;;;6.20;99.90;;;;;;5051244;28;20120;-77
2022/01/02 05:51:42;;;;;;;152.20;90.53;;;6.20;99.90;;;;;;5050566;28;20083;-76
2022/01/02 05:54:08;;;;;;;154.70;95.75;;;6.30;99.90;;;;;;5050724;28;20428;-75
2022/01/02 05:56:34;;;;;;;106.70;68.82;;;6.30;99.90;;;;;;5050674;28;20036;-75
2022/01/02 05:59:00;;;;;;;111.47;73.53;;;6.30;99.90;;;;;;5050825;28;20029;-75
2022/01/02 06:01:27;;;;;;;103.22;68.25;;;6.30;99.90;;;;;;5050699;28;20040;-75
2022/01/02 06:03:53;;;;;;;51.60;30.33;;;6.30;99.90;;;;;;5033956;28;20037;-77
2022/01/02 06:06:20;;;;;;;438.08;299.33;;;6.20;99.90;;;;;;5050826;28;20068;-77
2022/01/02 06:08:46;;;;;;;1234.00;784.55;;;6.20;99.90;;;;;;5051895;28;20067;-72
2022/01/02 06:11:11;;;;;;;923.22;636.17;;;6.20;99.90;;;;;;5051874;28;20029;-75
2022/01/02 06:13:38;;;;;;;464.70;315.27;;;6.20;99.90;;;;;;5052127;28;20021;-76
2022/01/02 06:16:03;;;;;;;290.25;190.95;;;6.20;99.90;;;;;;5052010;28;20029;-75
2022/01/02 06:18:29;;;;;;;386.63;249.05;;;6.20;99.90;;;;;;5050713;28;20387;-76
2022/01/02 06:20:55;;;;;;;412.75;268.42;;;6.10;99.90;;;;;;5051765;28;20070;-75
2022/01/02 06:23:21;;;;;;;395.30;255.57;;;6.10;99.90;;;;;;5034753;28;20048;-74
2022/01/02 06:25:47;;;;;;;137.85;86.97;;;6.00;99.90;;;;;;5054596;28;20033;-75
2022/01/02 06:28:13;;;;;;;153.00;104.25;;;6.00;99.90;;;;;;5054993;28;20021;-75
2022/01/02 06:30:39;;;;;;;337.17;224.48;;;5.90;99.90;;;;;;5055892;28;20075;-74
2022/01/02 06:33:05;;;;;;;477.15;329.95;;;5.90;99.90;;;;;;5056044;28;20611;-75
2022/01/02 06:35:34;;;;;;;474.85;336.00;;;5.90;99.90;;;;;;5054445;28;20032;-75
2022/01/02 06:38:14;;;;;;;421.05;280.50;;;5.80;99.90;;;;;;5054543;28;20033;-75
2022/01/02 06:40:40;;;;;;;241.65;157.57;;;5.90;99.90;;;;;;5054300;28;20028;-74
2022/01/02 06:43:07;;;;;;;291.20;187.75;;;6.00;99.90;;;;;;5054475;28;20040;-77
2022/01/02 06:45:35;;;;;;;171.85;110.43;;;6.00;99.90;;;;;;5054436;28;20025;-76
2022/01/02 06:48:04;;;;;;;314.60;210.15;;;6.00;99.90;;;;;;5054501;28;20039;-75
2022/01/02 06:50:31;;;;;;;370.92;253.98;;;6.10;99.90;;;;;;5037733;28;20119;-76
2022/01/02 06:52:57;;;;;;;299.42;188.75;;;6.10;99.90;;;;;;5037080;28;20506;-74
2022/01/02 06:55:23;;;;;;;267.60;167.73;;;6.10;99.90;;;;;;5055641;28;20368;-74
2022/01/02 06:57:49;;;;;;;235.82;139.07;;;6.30;99.90;;;;;;5054297;28;20048;-73
2022/01/02 07:00:17;;;;;;;199.18;132.13;;;6.30;99.90;;;;;;5054077;28;20388;-77
2022/01/02 07:02:43;;;;;;;221.32;137.45;;;6.40;99.90;;;;;;5053499;28;20041;-76
2022/01/02 07:05:10;;;;;;;172.13;114.25;;;6.50;99.90;;;;;;5037710;28;20036;-77
2022/01/02 07:07:44;;;;;;;188.95;123.88;;;6.60;99.90;;;;;;5052120;28;20025;-76
2022/01/02 07:10:12;;;;;;;181.90;124.68;;;6.70;99.90;;;;;;5048712;28;20029;-76
2022/01/02 07:12:38;;;;;;;190.98;128.93;;;6.70;99.90;;;;;;5055257;28;20384;-77
2022/01/02 07:15:06;;;;;;;194.95;124.10;;;6.80;99.90;;;;;;5053015;28;20033;-76
2022/01/02 07:17:32;;;;;;;167.20;117.72;;;6.90;99.90;;;;;;5052966;28;20060;-76
2022/01/02 07:19:57;;;;;;;187.63;134.43;;;6.90;99.90;;;;;;5052645;28;20403;-77
2022/01/02 07:22:23;;;;;;;217.10;153.05;;;6.90;99.90;;;;;;5052701;28;20037;-76
2022/01/02 07:24:51;;;;;;;272.55;183.32;;;6.90;99.90;;;;;;5052162;28;20111;-74
2022/01/02 07:27:21;;;;;;;341.88;230.32;;;7.00;99.90;;;;;;5053996;28;20682;-77
2022/01/02 07:29:47;;;;;;;341.50;230.70;;;7.20;99.90;;;;;;5054565;28;20471;-77
2022/01/02 07:32:13;;;;;;;343.90;241.07;;;7.30;99.90;;;;;;5053147;28;20543;-78
2022/01/02 07:34:39;;;;;;;328.70;233.27;;;7.40;99.90;;;;;;5054049;28;20052;-77
2022/01/02 07:37:05;;;;;;;354.38;247.98;;;7.60;99.90;;;;;;5052548;28;20029;-76
2022/01/02 07:39:31;;;;;;;289.85;197.60;;;7.70;99.90;;;;;;5054346;28;20021;-77
2022/01/02 07:41:57;;;;;;;257.80;174.88;;;7.80;99.90;;;;;;5054639;28;20036;-77
2022/01/02 07:44:32;;;;;;;294.83;215.70;;;8.00;99.90;;;;;;5048159;28;20064;-76
2022/01/02 07:46:58;;;;;;;278.85;207.05;;;8.20;99.90;;;;;;5054328;28;20047;-77
2022/01/02 07:49:24;;;;;;;260.33;183.80;;;8.30;99.90;;;;;;5046941;28;20028;-76
2022/01/02 07:51:50;;;;;;;295.20;202.90;;;8.50;99.90;;;;;;5053701;28;20068;-77
2022/01/02 07:54:16;;;;;;;277.00;191.27;;;8.50;99.90;;;;;;5053984;28;20040;-76
2022/01/02 07:56:42;;;;;;;261.65;176.35;;;8.60;99.90;;;;;;5054345;28;20021;-76
2022/01/02 07:59:08;;;;;;;242.32;163.55;;;8.70;99.90;;;;;;5054278;28;20036;-77
2022/01/02 08:01:34;;;;;;;238.63;164.77;;;8.80;99.90;;;;;;5054235;28;20029;-78
2022/01/02 08:04:00;;;;;;;242.10;163.18;;;9.00;99.90;;;;;;5053895;28;20048;-74
2022/01/02 08:06:26;;;;;;;236.50;158.52;;;9.10;99.90;;;;;;5053482;28;20452;-79
2022/01/02 08:08:52;;;;;;;244.63;168.50;;;9.30;99.90;;;;;;5053373;28;20537;-79
2022/01/02 08:11:18;;;;;;;250.00;177.98;;;9.50;99.90;;;;;;5053635;28;20476;-78
2022/01/02 08:13:44;;;;;;;246.52;167.15;;;9.60;99.90;;;;;;5053175;28;20060;-77
2022/01/02 08:16:11;;;;;;;220.73;144.82;;;9.80;99.90;;;;;;5053834;28;20021;-78
2022/01/02 08:18:37;;;;;;;225.10;155.40;;;9.90;99.90;;;;;;5053747;28;20032;-77
2022/01/02 08:21:03;;;;;;;180.35;127.90;;;10.00;99.90;;;;;;5053643;28;20363;-78
2022/01/02 08:23:29;;;;;;;193.63;127.55;;;10.00;99.90;;;;;;5052433;28;20047;-79
2022/01/02 08:25:55;;;;;;;206.15;142.20;;;10.20;99.90;;;;;;5053182;28;20029;-78
2022/01/02 08:28:20;;;;;;;213.25;150.55;;;10.30;99.90;;;;;;5053873;28;20025;-78
2022/01/02 08:30:47;;;;;;;235.93;162.98;;;10.40;99.90;;;;;;5052859;28;20421;-78
2022/01/02 08:33:14;;;;;;;245.00;174.02;;;10.50;99.90;;;;;;5044666;28;20100;-77
2022/01/02 08:35:43;;;;;;;253.50;176.63;;;10.60;99.90;;;;;;5053484;28;20017;-77
2022/01/02 08:38:09;;;;;;;167.20;115.18;;;10.80;99.90;;;;;;5043117;28;20450;-78
2022/01/02 08:40:37;;;;;;;132.23;95.50;;;10.90;99.90;;;;;;5053449;28;20109;-78
2022/01/02 08:43:03;;;;;;;136.63;97.70;;;11.00;99.90;;;;;;5053089;28;20025;-78
2022/01/02 08:45:29;;;;;;;139.93;96.07;;;11.00;99.90;;;;;;5052634;28;20115;-74
2022/01/02 08:47:54;;;;;;;128.40;91.07;;;11.20;99.90;;;;;;5052934;28;20447;-79
2022/01/02 08:50:20;;;;;;;116.20;86.80;;;11.30;99.90;;;;;;5045266;28;20475;-73
2022/01/02 08:52:46;;;;;;;114.28;81.97;;;11.40;99.90;;;;;;5052575;28;20048;-79
2022/01/02 08:55:12;;;;;;;110.22;79.35;;;11.50;99.90;;;;;;5044087;28;20187;-74
2022/01/02 08:57:38;;;;;;;92.38;64.78;;;11.60;99.90;;;;;;5053143;28;20094;-78
2022/01/02 09:00:05;;;;;;;79.18;61.78;;;11.70;99.90;;;;;;5053262;28;20048;-79
2022/01/02 09:02:31;;;;;;;77.38;56.22;;;11.80;99.90;;;;;;5053214;28;20398;-79
2022/01/02 09:04:56;;;;;;;73.85;52.85;;;11.90;99.90;;;;;;5053020;28;20025;-79
2022/01/02 09:07:22;;;;;;;78.90;52.70;;;12.00;99.90;;;;;;5052556;28;20025;-79
2022/01/02 09:09:48;;;;;;;78.97;55.00;;;12.10;99.90;;;;;;5052847;28;20120;-77
2022/01/02 09:12:15;;;;;;;87.97;55.45;;;12.20;99.90;;;;;;5043720;28;20124;-78
2022/01/02 09:14:42;;;;;;;75.45;54.85;;;12.30;99.90;;;;;;5052939;28;20029;-79
2022/01/02 09:17:08;;;;;;;75.10;53.45;;;12.40;99.90;;;;;;5052058;28;20021;-78
2022/01/02 09:19:34;;;;;;;70.90;50.80;;;12.50;99.90;;;;;;5051859;28;20176;-79
2022/01/02 09:22:00;;;;;;;73.22;50.72;;;12.60;99.90;;;;;;5051256;28;20096;-76
2022/01/02 09:24:26;;;;;;;49.35;34.65;;;12.70;99.90;;;;;;5027529;28;20098;-77
2022/01/02 09:26:52;;;;;;;49.40;30.67;;;12.80;99.90;;;;;;5047308;28;20100;-78
2022/01/02 09:29:18;;;;;;;37.35;25.15;;;12.90;99.90;;;;;;5042995;28;20022;-77
2022/01/02 09:31:44;;;;;;;37.55;27.02;;;12.90;99.90;;;;;;5052121;28;20025;-79
2022/01/02 09:34:09;;;;;;;40.22;25.52;;;13.00;99.90;;;;;;5052183;28;20074;-79
2022/01/02 09:36:37;;;;;;;37.80;25.02;;;13.10;99.90;;;;;;5051114;28;20104;-72
2022/01/02 09:39:04;;;;;;;38.95;27.55;;;13.20;99.90;;;;;;5051259;28;20021;-79
2022/01/02 09:41:30;;;;;;;36.67;25.70;;;13.30;99.90;;;;;;5051804;28;20471;-75
2022/01/02 09:43:58;;;;;;;38.65;26.58;;;13.30;99.90;;;;;;5051582;28;20055;-74
2022/01/02 09:46:26;;;;;;;34.80;24.80;;;13.30;99.90;;;;;;5052032;28;20055;-77
2022/01/02 09:48:54;;;;;;;35.35;22.88;;;13.50;99.90;;;;;;5051347;28;20100;-78
2022/01/02 09:51:25;;;;;;;35.30;24.13;;;13.50;99.90;;;;;;5050834;28;20056;-74
2022/01/02 09:53:53;;;;;;;54.13;36.40;;;13.60;99.90;;;;;;5050616;28;20032;-77
2022/01/02 09:56:19;;;;;;;62.75;40.55;;;13.70;99.90;;;;;;5043165;28;20029;-79
2022/01/02 09:58:46;;;;;;;61.15;41.92;;;13.80;99.90;;;;;;5051129;28;20025;-80
2022/01/02 10:01:16;;;;;;;50.92;38.78;;;13.80;99.90;;;;;;5051253;28;20028;-79
2022/01/02 10:03:44;;;;;;;54.85;38.30;;;13.80;99.30;;;;;;5045931;28;20033;-78
2022/01/02 10:06:10;;;;;;;55.47;39.78;;;13.70;99.30;;;;;;5051401;28;20075;-80
2022/01/02 10:08:36;;;;;;;56.50;40.35;;;13.80;99.90;;;;;;5051658;28;20030;-79
2022/01/02 10:11:08;;;;;;;38.60;24.20;;;13.90;99.80;;;;;;5050098;28;20459;-79
2022/01/02 10:13:40;;;;;;;57.92;44.42;;;13.90;99.90;;;;;;5029195;28;20515;-78
2022/01/02 10:16:38;;;;;;;62.50;43.55;;;13.80;99.90;;;;;;5051875;28;20426;-79
2022/01/02 10:19:19;;;;;;;56.45;41.85;;;13.80;99.90;;;;;;5051503;28;20095;-79
2022/01/02 10:22:04;;;;;;;66.03;44.05;;;13.90;99.90;;;;;;5051504;28;20111;-78
2022/01/02 10:24:31;;;;;;;59.33;42.05;;;14.00;99.90;;;;;;5051778;28;20037;-78
2022/01/02 10:27:31;;;;;;;53.03;34.70;;;14.00;99.90;;;;;;5051761;28;20379;-79
2022/01/02 10:29:58;;;;;;;54.60;34.78;;;14.00;99.90;;;;;;5051721;28;20040;-79
2022/01/02 10:32:28;;;;;;;49.08;27.48;;;14.00;99.90;;;;;;5051402;28;20376;-79
2022/01/02 10:35:14;;;;;;;43.63;28.30;;;14.00;99.50;;;;;;5051844;28;20029;-79
2022/01/02 10:38:01;;;;;;;44.15;28.92;;;14.10;99.90;;;;;;5051098;28;20048;-73
2022/01/02 10:40:38;;;;;;;31.45;21.77;;;14.10;99.90;;;;;;5045914;28;20033;-79
2022/01/02 10:43:28;;;;;;;31.55;21.02;;;14.20;99.90;;;;;;5051712;28;20476;-79
2022/01/02 10:45:56;;;;;;;28.23;18.23;;;14.20;99.90;;;;;;5051499;28;20025;-79
2022/01/02 10:48:34;;;;;;;28.73;17.25;;;14.20;98.50;;;;;;5064439;28;20044;-70
2022/01/02 10:51:14;;;;;;;23.60;13.05;;;14.40;99.90;;;;;;5071356;28;20025;-71
2022/01/02 10:53:55;;;;;;;19.83;11.98;;;14.30;98.50;;;;;;5071104;28;20081;-71
2022/01/02 10:56:23;;;;;;;21.30;11.55;;;14.30;99.10;;;;;;5070432;28;20061;-70
2022/01/02 10:58:49;;;;;;;16.30;9.80;;;14.30;97.90;;;;;;5071234;28;20020;-72
2022/01/02 11:01:15;;;;;;;17.98;10.07;;;14.50;99.60;;;;;;5071075;28;20029;-78
2022/01/02 11:03:45;;;;;;;30.75;11.63;;;14.50;99.20;;;;;;5071148;28;20032;-70
2022/01/02 11:06:24;;;;;;;18.67;10.80;;;14.50;99.90;;;;;;5067475;28;20467;-72
2022/01/02 11:08:52;;;;;;;20.25;11.95;;;14.60;99.90;;;;;;5050765;28;20072;-71
2022/01/02 11:11:19;;;;;;;24.50;12.50;;;14.70;99.30;;;;;;5055297;28;20108;-78
2022/01/02 11:13:45;;;;;;;20.55;12.38;;;14.70;99.20;;;;;;5054941;28;20025;-71
2022/01/02 11:16:11;;;;;;;20.95;11.85;;;14.70;98.10;;;;;;5054610;28;20031;-73
2022/01/02 11:18:37;;;;;;;22.17;10.38;;;14.70;99.30;;;;;;5055012;28;20029;-77
2022/01/02 11:21:09;;;;;;;21.27;10.35;;;14.70;99.90;;;;;;5055157;28;20059;-71
2022/01/02 11:23:58;;;;;;;19.85;11.05;;;14.70;99.10;;;;;;5054439;28;20480;-77
2022/01/02 11:26:42;;;;;;;22.48;12.00;;;14.60;99.90;;;;;;5054803;28;20071;-77
2022/01/02 11:29:08;;;;;;;21.63;10.93;;;14.70;98.90;;;;;;5054780;28;20058;-77
2022/01/02 11:31:46;;;;;;;19.08;11.20;;;14.70;99.30;;;;;;5052671;28;20029;-77
2022/01/02 11:34:21;;;;;;;19.20;11.65;;;14.70;97.90;;;;;;5054944;28;20040;-81
2022/01/02 11:36:47;;;;;;;15.98;7.88;;;14.70;99.00;;;;;;5054332;28;20122;-73
2022/01/02 11:39:13;;;;;;;21.35;12.85;;;14.80;96.70;;;;;;5046249;28;20723;-80
2022/01/02 11:41:41;;;;;;;16.73;9.63;;;14.80;97.80;;;;;;5055067;28;20531;-78
2022/01/02 11:44:18;;;;;;;13.55;7.93;;;14.80;98.00;;;;;;5054789;28;20021;-78
2022/01/02 11:46:58;;;;;;;23.05;7.47;;;14.80;96.10;;;;;;5054504;28;20189;-79
2022/01/02 11:49:23;;;;;;;16.65;8.40;;;14.80;96.20;;;;;;5054241;28;20033;-78
2022/01/02 11:52:05;;;;;;;14.32;7.20;;;14.80;95.60;;;;;;5050072;28;20064;-77
2022/01/02 11:54:40;;;;;;;12.95;6.68;;;14.90;95.80;;;;;;5054366;28;20376;-78
2022/01/02 11:57:14;;;;;;;20.38;9.35;;;14.90;96.50;;;;;;5054416;28;20029;-77
2022/01/02 11:59:40;;;;;;;20.13;7.82;;;15.00;97.40;;;;;;5049255;28;20029;-77
2022/01/02 12:02:30;;;;;;;18.88;10.02;;;15.00;95.70;;;;;;5054480;28;20040;-78
2022/01/02 12:05:02;;;;;;;23.58;13.25;;;15.00;96.80;;;;;;5045226;28;20037;-78
2022/01/02 12:07:55;;;;;;;15.80;8.43;;;15.00;97.20;;;;;;5054310;28;20036;-79
2022/01/02 12:10:31;;;;;;;15.55;8.93;;;15.10;95.70;;;;;;5039708;28;20047;-78
2022/01/02 12:12:57;;;;;;;17.15;8.48;;;15.10;96.70;;;;;;5054418;28;20092;-78
2022/01/02 12:15:24;;;;;;;10.40;5.75;;;15.10;96.50;;;;;;5053594;28;20110;-77
2022/01/02 12:18:25;;;;;;;11.15;6.85;;;15.00;95.90;;;;;;5053816;28;20056;-78
2022/01/02 12:20:51;;;;;;;17.75;8.75;;;15.10;96.20;;;;;;5032676;28;20037;-78
2022/01/02 12:23:35;;;;;;;19.88;10.43;;;15.20;96.50;;;;;;5053913;28;20433;-78
2022/01/02 12:26:02;;;;;;;18.80;11.52;;;15.10;96.00;;;;;;5054136;28;20021;-77
2022/01/02 12:28:36;;;;;;;16.77;9.55;;;15.10;96.80;;;;;;5054028;28;20028;-78
2022/01/02 12:31:02;;;;;;;15.07;8.10;;;15.20;96.50;;;;;;5054049;28;20053;-78
2022/01/02 12:33:30;;;;;;;14.25;8.35;;;15.20;97.00;;;;;;5053889;28;20025;-78
2022/01/02 12:35:57;;;;;;;19.15;8.07;;;15.20;95.50;;;;;;5053794;28;20040;-77
2022/01/02 12:38:23;;;;;;;29.90;14.75;;;15.30;95.20;;;;;;5053639;28;20044;-77
2022/01/02 12:40:53;;;;;;;19.23;9.43;;;15.20;94.90;;;;;;5053973;28;20032;-78
2022/01/02 12:43:25;;;;;;;34.05;16.42;;;15.20;94.60;;;;;;5052848;28;20499;-77
2022/01/02 12:45:55;;;;;;;11.77;6.18;;;15.20;95.00;;;;;;5048021;28;20032;-79
2022/01/02 12:48:34;;;;;;;13.38;6.68;;;15.30;94.20;;;;;;5052700;28;20044;-79
2022/01/02 12:51:14;;;;;;;9.05;4.55;;;15.30;94.90;;;;;;5052338;28;20472;-79